Time;durP1;ratioP1;P1;durP2;ratioP2;P2;SDS_P1;SDS_P2;PMS_P1;PMS_P2;Temp;Humidity;BMP_temperature;BMP_pressure;BME280_temperature;BME280_humidity;BME280_pressure;Samples;Min_cycle;Max_cycle;Signal;HPM_P1;HPM_P2
2021/11/22 00:00:01;;;;;;;26.00;12.53;;;7.10;99.90;;;;;;4439131;32;20243;-68
2021/11/22 00:02:28;;;;;;;24.40;13.00;;;7.00;99.90;;;;;;4438165;32;20392;-68
2021/11/22 00:04:55;;;;;;;26.23;13.40;;;6.90;99.90;;;;;;4439249;32;20201;-68
2021/11/22 00:07:22;;;;;;;24.37;12.60;;;6.90;99.90;;;;;;4438972;32;20485;-69
2021/11/22 00:09:49;;;;;;;26.70;14.20;;;7.00;99.90;;;;;;4437353;32;20205;-67
2021/11/22 00:12:16;;;;;;;26.40;13.40;;;6.90;99.90;;;;;;4436835;32;20544;-67
2021/11/22 00:14:43;;;;;;;29.60;14.83;;;7.00;99.90;;;;;;4438864;32;20580;-68
2021/11/22 00:17:10;;;;;;;27.67;15.27;;;6.90;99.90;;;;;;4438381;32;20162;-67
2021/11/22 00:19:37;;;;;;;29.50;15.50;;;6.90;99.90;;;;;;4437104;32;20205;-68
2021/11/22 00:22:04;;;;;;;26.47;14.20;;;7.00;99.90;;;;;;4437789;32;20249;-68
2021/11/22 00:24:31;;;;;;;29.40;14.20;;;7.00;99.90;;;;;;4438434;32;20519;-68
2021/11/22 00:26:58;;;;;;;27.33;13.80;;;7.00;99.90;;;;;;4438063;32;20573;-68
2021/11/22 00:29:26;;;;;;;28.77;14.50;;;7.10;99.90;;;;;;4439012;32;20598;-68
2021/11/22 00:31:53;;;;;;;29.40;14.60;;;7.10;99.90;;;;;;4438234;32;20168;-68
2021/11/22 00:34:23;;;;;;;23.93;13.50;;;7.10;99.90;;;;;;4437514;32;20176;-68
2021/11/22 00:36:51;;;;;;;28.37;13.97;;;7.10;99.90;;;;;;4437443;32;20187;-69
2021/11/22 00:39:17;;;;;;;27.90;14.57;;;7.10;99.90;;;;;;4439001;32;20193;-68
2021/11/22 00:41:45;;;;;;;30.47;14.00;;;7.20;99.90;;;;;;4436991;32;20184;-68
2021/11/22 00:44:12;;;;;;;27.07;13.93;;;7.20;99.90;;;;;;4437147;32;20269;-68
2021/11/22 00:46:39;;;;;;;23.50;13.40;;;7.20;99.90;;;;;;4438184;32;20234;-68
2021/11/22 00:49:06;;;;;;;25.80;13.57;;;7.20;99.90;;;;;;4438798;32;20234;-68
2021/11/22 00:51:33;;;;;;;27.47;14.27;;;7.20;99.90;;;;;;4437242;32;20187;-69
2021/11/22 00:54:00;;;;;;;28.27;14.50;;;7.20;99.90;;;;;;4438717;32;20178;-68
2021/11/22 00:56:29;;;;;;;30.47;15.23;;;7.20;99.90;;;;;;4436911;32;20203;-68
2021/11/22 00:58:56;;;;;;;27.50;14.77;;;7.20;99.90;;;;;;4438832;32;20211;-68
2021/11/22 01:01:23;;;;;;;25.33;14.30;;;7.20;99.90;;;;;;4438872;32;20198;-68
2021/11/22 01:03:50;;;;;;;27.23;14.13;;;7.30;99.90;;;;;;4438673;32;20233;-68
2021/11/22 01:06:17;;;;;;;29.87;14.43;;;7.30;99.90;;;;;;4437938;32;20184;-68
2021/11/22 01:08:44;;;;;;;24.33;13.40;;;7.30;99.90;;;;;;4438969;32;20204;-68
2021/11/22 01:11:11;;;;;;;29.73;15.23;;;7.30;99.90;;;;;;4439419;32;20208;-68
2021/11/22 01:13:38;;;;;;;27.83;15.17;;;7.30;99.90;;;;;;4441555;32;20242;-68
2021/11/22 01:16:06;;;;;;;26.73;15.40;;;7.30;99.90;;;;;;4440520;32;20449;-68
2021/11/22 01:18:33;;;;;;;27.30;15.10;;;7.30;99.90;;;;;;4439692;32;20204;-68
2021/11/22 01:21:00;;;;;;;29.47;16.00;;;7.30;99.90;;;;;;4439377;32;20202;-69
2021/11/22 01:23:27;;;;;;;28.00;15.13;;;7.30;99.90;;;;;;4440161;32;20190;-68
2021/11/22 01:25:54;;;;;;;30.43;15.93;;;7.30;99.90;;;;;;4441200;32;20257;-68
2021/11/22 01:28:21;;;;;;;31.53;15.40;;;7.20;99.90;;;;;;4440664;32;20290;-68
2021/11/22 01:30:48;;;;;;;31.13;16.70;;;7.20;99.90;;;;;;4439803;32;20276;-68
2021/11/22 01:33:16;;;;;;;32.37;16.83;;;7.20;99.90;;;;;;4441518;32;20266;-68
2021/11/22 01:35:44;;;;;;;30.57;16.40;;;7.20;99.90;;;;;;4441183;32;20170;-68
2021/11/22 01:38:14;;;;;;;32.10;16.53;;;7.20;99.90;;;;;;4439624;32;20173;-68
2021/11/22 01:40:43;;;;;;;31.20;17.13;;;7.20;99.90;;;;;;4440629;32;20428;-68
2021/11/22 01:43:16;;;;;;;30.33;16.87;;;7.10;99.90;;;;;;4439502;32;20196;-68
2021/11/22 01:45:46;;;;;;;30.73;17.83;;;7.10;99.90;;;;;;4440550;32;20186;-68
2021/11/22 01:48:15;;;;;;;33.10;17.37;;;7.10;99.90;;;;;;4439494;32;20511;-69
2021/11/22 01:50:44;;;;;;;31.70;16.43;;;7.10;99.90;;;;;;4440539;32;20209;-68
2021/11/22 01:53:12;;;;;;;30.10;16.10;;;7.10;99.90;;;;;;4440531;32;20184;-68
2021/11/22 01:55:39;;;;;;;28.17;14.97;;;7.10;99.90;;;;;;4439843;32;20246;-68
2021/11/22 01:58:07;;;;;;;27.10;15.00;;;7.00;99.90;;;;;;4440198;32;20429;-68
2021/11/22 02:00:41;;;;;;;28.70;15.00;;;7.00;99.90;;;;;;4440883;32;20212;-68
2021/11/22 02:03:10;;;;;;;26.93;14.50;;;7.00;99.90;;;;;;4439511;32;20383;-68
2021/11/22 02:05:37;;;;;;;27.10;13.23;;;7.00;99.90;;;;;;4441238;32;20223;-68
2021/11/22 02:08:05;;;;;;;29.57;15.40;;;7.00;99.90;;;;;;4439347;32;20193;-68
2021/11/22 02:10:32;;;;;;;28.17;14.07;;;7.00;99.90;;;;;;4440923;32;20248;-68
2021/11/22 02:13:00;;;;;;;28.17;14.07;;;6.90;99.90;;;;;;4439438;32;20178;-68
2021/11/22 02:15:27;;;;;;;25.93;13.03;;;7.00;99.90;;;;;;4440999;32;20189;-68
2021/11/22 02:17:54;;;;;;;25.03;12.57;;;6.90;99.90;;;;;;4439978;32;20196;-68
2021/11/22 02:20:25;;;;;;;22.40;11.27;;;6.90;99.90;;;;;;4438456;32;20182;-68
2021/11/22 02:22:54;;;;;;;22.23;12.00;;;6.90;99.90;;;;;;4440386;32;20691;-68
2021/11/22 02:25:24;;;;;;;25.77;12.33;;;6.90;99.90;;;;;;4440198;32;20247;-68
2021/11/22 02:27:51;;;;;;;22.87;12.20;;;6.90;99.90;;;;;;4438658;32;20226;-68
2021/11/22 02:30:21;;;;;;;23.17;12.00;;;7.00;99.90;;;;;;4438834;32;20275;-69
2021/11/22 02:32:48;;;;;;;22.77;12.17;;;7.00;99.90;;;;;;4438758;32;20220;-68
2021/11/22 02:35:19;;;;;;;25.03;12.60;;;7.00;99.90;;;;;;4441559;32;20181;-68
2021/11/22 02:37:47;;;;;;;24.87;12.40;;;7.10;99.90;;;;;;4440467;32;20235;-68
2021/11/22 02:40:15;;;;;;;23.30;12.53;;;7.10;99.90;;;;;;4441677;32;20147;-68
2021/11/22 02:42:44;;;;;;;24.00;12.43;;;7.10;99.90;;;;;;4438291;32;20217;-68
2021/11/22 02:45:16;;;;;;;21.27;11.63;;;7.10;99.90;;;;;;4439505;32;20218;-68
2021/11/22 02:47:44;;;;;;;23.37;12.13;;;7.20;99.90;;;;;;4438583;32;20409;-68
2021/11/22 02:50:12;;;;;;;21.93;11.70;;;7.20;99.90;;;;;;4439952;32;20216;-68
2021/11/22 02:52:41;;;;;;;23.13;12.50;;;7.20;99.90;;;;;;4439811;32;20189;-68
2021/11/22 02:55:10;;;;;;;22.23;12.07;;;7.20;99.90;;;;;;4438847;32;20224;-68
2021/11/22 02:57:38;;;;;;;22.13;11.83;;;7.20;99.90;;;;;;4438947;32;20221;-69
2021/11/22 03:00:10;;;;;;;21.80;11.40;;;7.20;99.90;;;;;;4440399;32;20181;-68
2021/11/22 03:02:37;;;;;;;22.27;11.57;;;7.20;99.90;;;;;;4439739;32;20441;-68
2021/11/22 03:05:05;;;;;;;23.13;12.40;;;7.20;99.90;;;;;;4439125;32;20208;-68
2021/11/22 03:07:32;;;;;;;22.30;11.37;;;7.10;99.90;;;;;;4439925;32;20276;-68
2021/11/22 03:10:00;;;;;;;22.00;12.07;;;7.10;99.90;;;;;;4438779;32;20226;-68
2021/11/22 03:12:27;;;;;;;25.70;12.43;;;7.10;99.90;;;;;;4439042;32;20183;-68
2021/11/22 03:14:54;;;;;;;23.53;12.40;;;7.10;99.90;;;;;;4438194;32;20216;-68
2021/11/22 03:17:21;;;;;;;20.10;11.33;;;7.10;99.90;;;;;;4438801;32;20449;-68
2021/11/22 03:19:48;;;;;;;21.60;11.90;;;7.10;99.90;;;;;;4437687;32;20476;-68
2021/11/22 03:22:15;;;;;;;21.13;11.57;;;7.10;99.90;;;;;;4439386;32;20166;-68
2021/11/22 03:24:42;;;;;;;25.57;12.37;;;7.10;99.90;;;;;;4439112;32;20271;-68
2021/11/22 03:27:09;;;;;;;23.73;11.97;;;7.20;99.90;;;;;;4439071;32;20176;-68
2021/11/22 03:29:36;;;;;;;24.00;11.63;;;7.10;99.90;;;;;;4439211;32;20451;-68
2021/11/22 03:32:04;;;;;;;21.93;11.60;;;7.10;99.90;;;;;;4438522;32;20138;-68
2021/11/22 03:34:31;;;;;;;20.93;11.33;;;7.10;99.90;;;;;;4439321;32;20239;-68
2021/11/22 03:37:02;;;;;;;21.27;11.00;;;7.10;99.90;;;;;;4439605;32;20146;-68
2021/11/22 03:39:31;;;;;;;22.43;11.40;;;7.10;99.90;;;;;;4438641;32;20183;-68
2021/11/22 03:42:03;;;;;;;21.33;11.10;;;7.10;99.90;;;;;;4438944;32;20466;-68
2021/11/22 03:44:32;;;;;;;20.73;10.43;;;7.00;99.90;;;;;;4439294;32;20435;-68
2021/11/22 03:47:00;;;;;;;18.73;10.47;;;7.00;99.90;;;;;;4439605;32;20173;-68
2021/11/22 03:49:28;;;;;;;21.07;10.70;;;7.00;99.90;;;;;;4438513;32;20178;-68
2021/11/22 03:51:55;;;;;;;21.73;10.47;;;7.00;99.90;;;;;;4437975;32;20232;-68
2021/11/22 03:54:22;;;;;;;19.00;11.27;;;7.10;99.90;;;;;;4440695;32;20146;-68
2021/11/22 03:56:49;;;;;;;23.67;11.50;;;7.10;99.90;;;;;;4439188;32;20417;-68
2021/11/22 03:59:16;;;;;;;18.40;9.77;;;7.10;99.90;;;;;;4437965;32;20178;-68
2021/11/22 04:01:43;;;;;;;19.27;9.80;;;7.10;99.90;;;;;;4440172;32;20525;-68
2021/11/22 04:04:11;;;;;;;19.00;10.40;;;7.00;99.90;;;;;;4439114;32;20354;-68
2021/11/22 04:06:38;;;;;;;16.87;9.37;;;7.00;99.90;;;;;;4438912;32;20430;-68
2021/11/22 04:09:06;;;;;;;18.97;10.27;;;7.00;99.90;;;;;;4439424;32;20254;-68
2021/11/22 04:11:35;;;;;;;18.53;9.80;;;7.00;99.90;;;;;;4437418;32;20500;-68
2021/11/22 04:14:03;;;;;;;16.07;8.93;;;7.00;99.90;;;;;;4436997;32;20546;-68
2021/11/22 04:16:30;;;;;;;16.43;9.27;;;7.00;99.90;;;;;;4437713;32;20233;-68
2021/11/22 04:18:57;;;;;;;17.93;9.37;;;7.00;99.90;;;;;;4438316;32;20448;-68
2021/11/22 04:21:25;;;;;;;17.53;9.27;;;7.00;99.90;;;;;;4438537;32;20554;-68
2021/11/22 04:23:55;;;;;;;16.97;9.60;;;7.00;99.90;;;;;;4439515;32;20240;-69
2021/11/22 04:26:23;;;;;;;15.43;9.10;;;6.90;99.90;;;;;;4439210;32;20207;-68
2021/11/22 04:28:50;;;;;;;17.20;9.60;;;6.80;99.90;;;;;;4437875;32;20395;-68
2021/11/22 04:31:17;;;;;;;18.67;9.23;;;6.80;99.90;;;;;;4438393;32;20536;-68
2021/11/22 04:33:44;;;;;;;14.87;9.07;;;6.70;99.90;;;;;;4437369;32;20242;-68
2021/11/22 04:36:11;;;;;;;15.23;8.90;;;6.70;99.90;;;;;;4437027;32;20411;-68
2021/11/22 04:38:38;;;;;;;16.27;8.73;;;6.70;99.90;;;;;;4438059;32;20548;-68
2021/11/22 04:41:05;;;;;;;15.37;8.37;;;6.70;99.90;;;;;;4438496;32;20195;-68
2021/11/22 04:43:32;;;;;;;15.80;8.47;;;6.70;99.90;;;;;;4439019;32;20409;-68
2021/11/22 04:46:00;;;;;;;15.93;8.40;;;6.70;99.90;;;;;;4443109;32;20379;-68
2021/11/22 04:48:27;;;;;;;16.93;8.80;;;6.70;99.90;;;;;;4441621;32;20479;-68
2021/11/22 04:50:55;;;;;;;15.63;8.90;;;6.70;99.90;;;;;;4439911;32;20203;-68
2021/11/22 04:53:23;;;;;;;15.70;8.87;;;6.70;99.90;;;;;;4440899;32;20181;-68
2021/11/22 04:55:51;;;;;;;14.87;8.97;;;6.70;99.90;;;;;;4440038;32;20560;-68
2021/11/22 04:58:18;;;;;;;15.90;9.00;;;6.70;99.90;;;;;;4441080;32;20223;-68
2021/11/22 05:00:45;;;;;;;20.17;9.03;;;6.70;99.90;;;;;;4441673;32;20432;-68
2021/11/22 05:03:12;;;;;;;16.87;9.10;;;6.70;99.90;;;;;;4441103;32;20239;-68
2021/11/22 05:05:40;;;;;;;16.70;9.40;;;6.70;99.90;;;;;;4441591;32;20442;-68
2021/11/22 05:08:08;;;;;;;18.80;10.37;;;6.70;99.90;;;;;;4441116;32;20501;-68
2021/11/22 05:10:38;;;;;;;17.13;10.00;;;6.70;99.90;;;;;;4442667;32;20493;-68
2021/11/22 05:13:06;;;;;;;16.27;9.77;;;6.70;99.90;;;;;;4441191;32;20196;-68
2021/11/22 05:15:35;;;;;;;18.47;10.07;;;6.70;99.90;;;;;;4441608;32;20555;-68
2021/11/22 05:18:03;;;;;;;16.93;9.87;;;6.70;99.90;;;;;;4439526;32;20588;-68
2021/11/22 05:20:32;;;;;;;17.67;9.67;;;6.70;99.90;;;;;;4439255;32;20178;-68
2021/11/22 05:22:59;;;;;;;17.90;9.70;;;6.70;99.90;;;;;;4441366;32;20194;-68
2021/11/22 05:25:27;;;;;;;14.23;8.83;;;6.70;99.90;;;;;;4440744;32;20202;-68
2021/11/22 05:27:54;;;;;;;12.23;7.10;;;6.70;99.90;;;;;;4439488;32;20584;-68
2021/11/22 05:30:25;;;;;;;11.97;6.87;;;6.60;99.90;;;;;;4439499;32;20218;-68
2021/11/22 05:32:58;;;;;;;12.60;7.27;;;6.50;99.90;;;;;;4439979;32;20180;-68
2021/11/22 05:35:26;;;;;;;13.17;6.90;;;6.40;99.90;;;;;;4439277;32;20549;-68
2021/11/22 05:37:53;;;;;;;12.20;7.37;;;6.40;99.90;;;;;;4440333;32;20261;-68
2021/11/22 05:40:21;;;;;;;14.13;7.77;;;6.40;99.90;;;;;;4442173;32;20155;-68
2021/11/22 05:42:49;;;;;;;14.23;8.07;;;6.30;99.90;;;;;;4439056;32;20197;-68
2021/11/22 05:45:16;;;;;;;13.17;7.30;;;6.30;99.90;;;;;;4440867;32;20179;-68
2021/11/22 05:47:43;;;;;;;12.57;7.60;;;6.40;99.90;;;;;;4441273;32;20451;-68
2021/11/22 05:50:11;;;;;;;15.47;8.00;;;6.50;99.90;;;;;;4439372;32;20198;-68
2021/11/22 05:52:40;;;;;;;11.67;7.17;;;6.50;99.90;;;;;;4438983;32;20226;-68
2021/11/22 05:55:12;;;;;;;13.80;7.07;;;6.50;99.90;;;;;;4439982;32;20215;-68
2021/11/22 05:57:39;;;;;;;12.67;7.57;;;6.50;99.90;;;;;;4440144;32;20172;-68
2021/11/22 06:00:08;;;;;;;12.10;7.27;;;6.50;99.90;;;;;;4439480;32;20576;-68
2021/11/22 06:02:35;;;;;;;10.27;6.87;;;6.50;99.90;;;;;;4439918;32;20559;-68
2021/11/22 06:05:02;;;;;;;11.60;7.40;;;6.50;99.90;;;;;;4439628;32;20176;-68
2021/11/22 06:07:29;;;;;;;12.57;7.97;;;6.50;99.90;;;;;;4440796;32;20161;-68
2021/11/22 06:09:58;;;;;;;13.50;7.87;;;6.50;99.90;;;;;;4439024;32;20201;-68
2021/11/22 06:12:25;;;;;;;15.63;9.00;;;6.50;99.90;;;;;;4440324;32;20178;-68
2021/11/22 06:14:53;;;;;;;13.73;8.27;;;6.50;99.90;;;;;;4438950;32;20204;-68
2021/11/22 06:17:20;;;;;;;13.60;8.27;;;6.50;99.90;;;;;;4440424;32;20178;-68
2021/11/22 06:19:47;;;;;;;11.93;7.60;;;6.40;99.90;;;;;;4438301;32;20194;-68
2021/11/22 06:22:14;;;;;;;14.27;8.00;;;6.50;99.90;;;;;;4438591;32;20230;-68
2021/11/22 06:24:41;;;;;;;12.77;7.73;;;6.50;99.90;;;;;;4439582;32;20581;-68
2021/11/22 06:27:08;;;;;;;12.83;7.80;;;6.50;99.90;;;;;;4439637;32;20462;-68
2021/11/22 06:29:37;;;;;;;11.63;7.10;;;6.50;99.90;;;;;;4438428;32;20225;-68
2021/11/22 06:32:10;;;;;;;13.17;7.23;;;6.40;99.90;;;;;;4441333;32;20515;-68
2021/11/22 06:34:39;;;;;;;13.80;7.33;;;6.40;99.90;;;;;;4440100;32;20395;-68
2021/11/22 06:37:06;;;;;;;10.73;6.63;;;6.40;99.90;;;;;;4439200;32;20303;-68
2021/11/22 06:39:35;;;;;;;12.00;7.50;;;6.40;99.90;;;;;;4438468;32;20170;-68
2021/11/22 06:42:03;;;;;;;10.90;7.00;;;6.50;99.90;;;;;;4439928;32;20240;-68
2021/11/22 06:44:30;;;;;;;12.13;7.73;;;6.50;99.90;;;;;;4439714;32;20190;-68
2021/11/22 06:46:57;;;;;;;12.63;7.67;;;6.50;99.90;;;;;;4438335;32;20167;-68
2021/11/22 06:49:24;;;;;;;11.07;7.13;;;6.50;99.90;;;;;;4439805;32;20246;-69
2021/11/22 06:51:52;;;;;;;12.17;6.83;;;6.50;99.90;;;;;;4439970;32;20176;-67
2021/11/22 06:54:19;;;;;;;11.87;7.00;;;6.50;99.90;;;;;;4439869;32;20163;-68
2021/11/22 06:56:47;;;;;;;10.87;6.47;;;6.40;99.90;;;;;;4439704;32;20181;-68
2021/11/22 06:59:14;;;;;;;13.37;6.90;;;6.50;99.90;;;;;;4438532;32;20184;-69
2021/11/22 07:01:41;;;;;;;12.07;7.03;;;6.50;99.90;;;;;;4439746;32;20489;-68
2021/11/22 07:04:09;;;;;;;11.57;6.93;;;6.50;99.90;;;;;;4438001;32;20562;-68
2021/11/22 07:06:36;;;;;;;11.17;7.20;;;6.60;99.90;;;;;;4438349;32;20181;-68
2021/11/22 07:09:04;;;;;;;10.10;7.23;;;6.60;99.90;;;;;;4439637;32;20170;-68
2021/11/22 07:11:31;;;;;;;11.60;7.27;;;6.50;99.90;;;;;;4437848;32;20193;-68
2021/11/22 07:14:01;;;;;;;11.90;7.27;;;6.40;99.90;;;;;;4438074;32;20214;-69
2021/11/22 07:16:29;;;;;;;10.37;7.10;;;6.50;99.90;;;;;;4439973;32;20238;-68
2021/11/22 07:18:56;;;;;;;10.97;7.03;;;6.40;99.90;;;;;;4437846;32;20212;-69
2021/11/22 07:21:23;;;;;;;10.73;7.47;;;6.40;99.90;;;;;;4437618;32;20169;-68
2021/11/22 07:23:51;;;;;;;11.93;7.40;;;6.50;99.90;;;;;;4438166;32;20583;-68
2021/11/22 07:26:19;;;;;;;11.37;7.13;;;6.50;99.90;;;;;;4438463;32;20186;-68
2021/11/22 07:28:46;;;;;;;14.83;7.77;;;6.60;99.90;;;;;;4439299;32;20184;-68
2021/11/22 07:31:13;;;;;;;11.03;7.07;;;6.60;99.90;;;;;;4438415;32;20308;-68
2021/11/22 07:33:40;;;;;;;11.37;7.10;;;6.60;99.90;;;;;;4439252;32;20184;-68
2021/11/22 07:36:08;;;;;;;11.53;6.57;;;6.60;99.90;;;;;;4434334;32;20186;-67
2021/11/22 07:38:37;;;;;;;10.63;6.87;;;6.70;99.90;;;;;;4437448;32;20237;-68
2021/11/22 07:41:05;;;;;;;11.10;7.10;;;6.50;99.90;;;;;;4437384;32;20220;-68
2021/11/22 07:43:32;;;;;;;10.50;6.90;;;6.60;99.90;;;;;;4438424;32;20577;-68
2021/11/22 07:45:59;;;;;;;12.03;7.10;;;6.60;99.90;;;;;;4429113;32;20255;-68
2021/11/22 07:48:27;;;;;;;11.73;7.30;;;6.60;99.90;;;;;;4437413;32;20182;-68
2021/11/22 07:50:54;;;;;;;12.60;8.00;;;6.70;99.90;;;;;;4437181;32;20257;-68
2021/11/22 07:53:35;;;;;;;11.17;8.27;;;6.60;99.90;;;;;;4438036;32;20193;-67
2021/11/22 07:56:03;;;;;;;14.80;8.33;;;6.60;99.90;;;;;;4437842;32;20469;-68
2021/11/22 07:58:30;;;;;;;14.83;8.23;;;6.70;99.90;;;;;;4437206;32;20510;-67
2021/11/22 08:00:58;;;;;;;13.40;8.20;;;6.70;99.90;;;;;;4437928;32;20524;-68
2021/11/22 08:03:26;;;;;;;11.23;7.87;;;6.60;99.90;;;;;;4436890;32;20570;-67
2021/11/22 08:05:56;;;;;;;13.17;8.03;;;6.60;99.90;;;;;;4438414;32;20174;-67
2021/11/22 08:08:27;;;;;;;14.97;7.90;;;6.60;99.90;;;;;;4437437;32;20179;-68
2021/11/22 08:11:27;;;;;;;11.93;8.03;;;6.70;99.90;;;;;;4437074;32;20194;-68
2021/11/22 08:13:53;;;;;;;12.30;7.37;;;6.80;99.90;;;;;;4436300;32;20611;-67
2021/11/22 08:16:21;;;;;;;11.57;7.60;;;6.90;99.90;;;;;;4436690;32;20186;-67
2021/11/22 08:18:49;;;;;;;11.07;6.90;;;7.00;99.90;;;;;;4439050;32;20174;-67
2021/11/22 08:21:16;;;;;;;11.20;7.07;;;7.10;99.90;;;;;;4436440;32;20213;-68
2021/11/22 08:23:43;;;;;;;11.67;6.63;;;7.20;99.90;;;;;;4429967;32;20494;-68
2021/11/22 08:26:10;;;;;;;10.47;6.80;;;7.30;99.90;;;;;;4436858;32;20181;-67
2021/11/22 08:28:38;;;;;;;11.10;6.63;;;7.40;99.90;;;;;;4438017;32;20188;-67
2021/11/22 08:31:05;;;;;;;9.57;5.83;;;7.50;99.90;;;;;;4437958;32;20158;-68
2021/11/22 08:33:32;;;;;;;12.13;6.30;;;7.50;99.90;;;;;;4438609;32;20217;-67
2021/11/22 08:35:59;;;;;;;9.80;6.23;;;7.60;99.90;;;;;;4436740;32;20567;-68
2021/11/22 08:38:26;;;;;;;9.20;6.10;;;7.70;99.90;;;;;;4424374;32;20197;-68
2021/11/22 08:40:54;;;;;;;8.20;5.73;;;7.70;99.90;;;;;;4436471;32;20613;-68
2021/11/22 08:43:24;;;;;;;10.03;6.43;;;7.60;99.90;;;;;;4436643;32;20177;-68
2021/11/22 08:45:52;;;;;;;9.60;6.50;;;7.60;99.90;;;;;;4438002;32;20181;-68
2021/11/22 08:48:21;;;;;;;10.00;6.87;;;7.60;99.90;;;;;;4437088;32;20561;-67
2021/11/22 08:50:48;;;;;;;11.47;7.17;;;7.50;99.90;;;;;;4436974;32;20246;-67
2021/11/22 08:53:15;;;;;;;11.57;7.80;;;7.50;99.90;;;;;;4438056;32;20190;-68
2021/11/22 08:55:43;;;;;;;11.27;7.40;;;7.40;99.90;;;;;;4436531;32;20575;-68
2021/11/22 08:58:10;;;;;;;12.47;7.63;;;7.40;99.90;;;;;;4437618;32;20526;-68
2021/11/22 09:00:40;;;;;;;11.30;7.93;;;7.40;99.90;;;;;;4437947;32;20153;-68
2021/11/22 09:03:07;;;;;;;11.20;7.60;;;7.40;99.90;;;;;;4436845;32;20345;-68
2021/11/22 09:05:35;;;;;;;11.67;7.40;;;7.40;99.90;;;;;;4438041;32;20718;-71
2021/11/22 09:08:02;;;;;;;9.97;7.33;;;7.40;99.90;;;;;;4436616;32;20178;-68
2021/11/22 09:10:30;;;;;;;12.03;7.67;;;7.40;99.90;;;;;;4436654;32;20245;-68
2021/11/22 09:12:57;;;;;;;10.70;7.50;;;7.50;99.90;;;;;;4404057;32;20247;-68
2021/11/22 09:15:25;;;;;;;11.73;7.93;;;7.60;99.90;;;;;;4391006;32;20175;-68
2021/11/22 09:17:56;;;;;;;9.63;6.93;;;7.80;99.90;;;;;;4390647;32;20278;-68
2021/11/22 09:20:24;;;;;;;10.97;7.23;;;7.90;99.90;;;;;;4391374;32;20223;-68
2021/11/22 09:22:56;;;;;;;11.13;6.93;;;8.00;99.90;;;;;;4391162;32;20283;-67
2021/11/22 09:25:25;;;;;;;8.70;6.50;;;8.10;99.90;;;;;;4393483;32;20170;-68
2021/11/22 09:27:52;;;;;;;8.63;6.67;;;8.00;99.90;;;;;;4393547;32;20182;-67
2021/11/22 09:30:19;;;;;;;9.70;6.60;;;8.00;99.90;;;;;;4392456;32;20468;-68
2021/11/22 09:32:46;;;;;;;10.03;6.53;;;8.00;99.90;;;;;;4393530;32;20218;-67
2021/11/22 09:35:13;;;;;;;10.67;7.23;;;8.00;99.90;;;;;;4381112;32;20194;-67
2021/11/22 09:37:41;;;;;;;11.30;7.60;;;7.90;99.90;;;;;;4394095;32;20175;-68
2021/11/22 09:40:09;;;;;;;11.90;7.10;;;7.80;99.90;;;;;;4392471;32;20218;-68
2021/11/22 09:42:36;;;;;;;8.80;6.60;;;7.80;99.90;;;;;;4393587;32;20222;-68
2021/11/22 09:45:06;;;;;;;11.83;7.00;;;7.90;99.90;;;;;;4395272;32;20186;-68
2021/11/22 09:47:34;;;;;;;11.80;7.17;;;7.90;99.90;;;;;;4392939;32;20572;-68
2021/11/22 09:50:02;;;;;;;12.10;7.07;;;8.00;99.90;;;;;;4393050;32;20187;-68
2021/11/22 09:52:30;;;;;;;12.37;7.30;;;8.00;99.90;;;;;;4395131;32;20182;-68
2021/11/22 09:54:57;;;;;;;10.33;6.87;;;8.00;99.90;;;;;;4393310;32;20231;-67
2021/11/22 09:57:25;;;;;;;9.30;7.03;;;8.10;99.90;;;;;;4391428;32;20179;-67
2021/11/22 09:59:52;;;;;;;10.13;6.77;;;8.10;99.90;;;;;;4393948;32;20199;-68
2021/11/22 10:02:38;;;;;;;11.17;7.87;;;8.20;99.90;;;;;;4393230;32;20186;-68
2021/11/22 10:05:25;;;;;;;10.60;7.83;;;8.30;99.90;;;;;;4394822;32;20238;-68
2021/11/22 10:08:14;;;;;;;11.50;7.63;;;8.50;99.90;;;;;;4394636;32;20175;-67
2021/11/22 10:10:46;;;;;;;11.73;7.77;;;8.40;99.90;;;;;;4393239;32;20185;-67
2021/11/22 10:13:31;;;;;;;12.47;7.67;;;8.30;99.90;;;;;;4393685;32;20231;-67
2021/11/22 10:16:07;;;;;;;10.83;7.60;;;8.20;99.90;;;;;;4393630;32;20241;-68
2021/11/22 10:18:43;;;;;;;12.13;6.70;;;8.20;99.90;;;;;;4385278;32;20182;-68
2021/11/22 10:21:13;;;;;;;10.97;6.53;;;8.20;99.90;;;;;;4390143;32;20245;-68
2021/11/22 10:23:42;;;;;;;11.57;7.30;;;8.20;99.90;;;;;;4384617;32;20191;-68
2021/11/22 10:26:14;;;;;;;15.63;8.70;;;8.20;99.90;;;;;;4392063;32;20176;-68
2021/11/22 10:28:43;;;;;;;14.57;9.17;;;8.20;99.90;;;;;;4391401;32;20234;-67
2021/11/22 10:31:13;;;;;;;18.27;9.80;;;8.00;99.90;;;;;;4391863;32;20187;-68
2021/11/22 10:33:42;;;;;;;15.53;9.60;;;7.90;99.90;;;;;;4392812;32;20178;-68
2021/11/22 10:36:12;;;;;;;12.93;7.57;;;7.80;99.90;;;;;;4392690;32;20198;-68
2021/11/22 10:38:45;;;;;;;14.07;8.47;;;7.70;99.90;;;;;;4392807;32;20171;-68
2021/11/22 10:41:19;;;;;;;13.83;8.40;;;7.50;99.90;;;;;;4392313;32;20431;-68
2021/11/22 10:43:55;;;;;;;13.87;7.70;;;7.40;99.90;;;;;;4393466;32;20515;-68
2021/11/22 10:46:29;;;;;;;12.30;7.43;;;7.50;99.90;;;;;;4394257;32;20162;-67
2021/11/22 10:49:29;;;;;;;12.60;7.80;;;7.50;99.90;;;;;;4393237;32;20490;-67
2021/11/22 10:52:35;;;;;;;12.77;7.80;;;7.50;99.90;;;;;;4392473;32;20226;-67
2021/11/22 10:55:05;;;;;;;13.33;7.83;;;7.60;99.90;;;;;;4390426;32;20201;-68
2021/11/22 10:57:45;;;;;;;12.63;8.37;;;7.70;99.90;;;;;;4391955;32;20246;-67
2021/11/22 11:00:21;;;;;;;11.30;6.87;;;7.70;99.90;;;;;;4387483;32;20247;-67
2021/11/22 11:02:51;;;;;;;10.90;6.87;;;7.70;99.90;;;;;;4387918;32;20250;-68
2021/11/22 11:05:39;;;;;;;9.17;5.57;;;7.80;99.90;;;;;;4393119;32;20248;-68
2021/11/22 11:08:09;;;;;;;7.23;4.90;;;8.00;99.90;;;;;;4393868;32;20184;-67
2021/11/22 11:10:39;;;;;;;8.37;5.43;;;8.00;99.90;;;;;;4389941;32;20198;-68
2021/11/22 11:13:43;;;;;;;8.10;5.03;;;8.00;99.90;;;;;;4389416;32;20194;-67
2021/11/22 11:16:11;;;;;;;11.43;5.20;;;7.80;99.90;;;;;;4392789;32;20179;-67
2021/11/22 11:18:39;;;;;;;10.80;5.80;;;7.80;99.90;;;;;;4393059;32;20183;-67
2021/11/22 11:21:06;;;;;;;10.00;5.70;;;7.80;99.90;;;;;;4391796;32;20241;-68
2021/11/22 11:23:34;;;;;;;9.23;6.40;;;7.80;99.90;;;;;;4392216;32;20246;-67
2021/11/22 11:26:01;;;;;;;10.27;6.50;;;7.70;99.90;;;;;;4393127;32;20359;-68
2021/11/22 11:28:29;;;;;;;10.10;6.47;;;7.70;99.90;;;;;;4392785;32;20254;-68
2021/11/22 11:30:56;;;;;;;14.97;7.00;;;7.80;99.90;;;;;;4405022;32;20234;-68
2021/11/22 11:33:24;;;;;;;11.53;6.90;;;7.80;99.90;;;;;;4393701;32;20201;-67
2021/11/22 11:36:04;;;;;;;9.53;6.67;;;7.80;99.90;;;;;;4394715;32;20260;-68
2021/11/22 11:38:50;;;;;;;11.93;6.97;;;7.80;99.90;;;;;;4393567;32;20159;-67
2021/11/22 11:41:39;;;;;;;10.83;6.77;;;7.80;99.90;;;;;;4391832;32;20230;-67
2021/11/22 11:44:50;;;;;;;10.80;6.87;;;7.90;99.90;;;;;;4392142;32;20207;-68
2021/11/22 11:47:32;;;;;;;10.03;6.27;;;7.70;99.90;;;;;;4392020;32;20409;-68
2021/11/22 11:50:25;;;;;;;8.57;5.50;;;7.70;99.90;;;;;;4392058;32;20244;-68
2021/11/22 11:52:56;;;;;;;9.00;5.20;;;7.60;99.90;;;;;;4392206;32;20214;-67
2021/11/22 11:55:23;;;;;;;8.50;5.10;;;7.60;99.90;;;;;;4392645;32;20175;-67
2021/11/22 11:58:10;;;;;;;8.13;4.70;;;7.60;99.90;;;;;;4391322;32;20532;-67
2021/11/22 12:00:59;;;;;;;5.97;4.70;;;7.60;99.90;;;;;;4392866;32;20201;-68
2021/11/22 12:03:29;;;;;;;7.63;4.50;;;7.70;99.90;;;;;;4391517;32;20253;-68
2021/11/22 12:05:58;;;;;;;7.10;4.97;;;7.70;99.90;;;;;;4391157;32;20239;-69
2021/11/22 12:08:31;;;;;;;7.57;4.10;;;7.70;99.90;;;;;;4394095;32;20173;-68
2021/11/22 12:11:01;;;;;;;6.27;4.13;;;7.70;99.90;;;;;;4391395;32;20190;-68
2021/11/22 12:13:53;;;;;;;6.93;4.00;;;7.70;99.90;;;;;;4392226;32;20183;-68
2021/11/22 12:16:49;;;;;;;6.23;4.00;;;7.70;99.90;;;;;;4391726;32;20200;-68
2021/11/22 12:19:40;;;;;;;5.33;3.57;;;7.70;99.90;;;;;;4362613;32;20273;-68
2021/11/22 12:22:16;;;;;;;6.73;3.50;;;7.60;99.90;;;;;;4359642;32;20483;-68
2021/11/22 12:24:47;;;;;;;5.97;3.73;;;7.60;99.90;;;;;;4367473;32;20175;-68
2021/11/22 12:27:29;;;;;;;8.63;4.50;;;7.60;99.90;;;;;;4363247;32;20193;-68
2021/11/22 12:29:59;;;;;;;8.80;5.10;;;7.60;99.90;;;;;;4363838;32;20688;-68
2021/11/22 12:32:35;;;;;;;8.23;4.90;;;7.70;99.90;;;;;;4373237;32;20326;-68
2021/11/22 12:35:15;;;;;;;9.03;4.03;;;7.80;99.90;;;;;;4356105;33;20176;-67
2021/11/22 12:37:42;;;;;;;6.03;3.97;;;7.80;99.90;;;;;;4360646;32;20187;-69
2021/11/22 12:40:16;;;;;;;7.60;4.20;;;7.90;99.90;;;;;;4362355;32;20168;-68
2021/11/22 12:42:50;;;;;;;7.83;4.57;;;8.00;99.90;;;;;;4363321;32;20221;-68
2021/11/22 12:45:18;;;;;;;7.40;4.90;;;8.10;99.90;;;;;;4352969;33;20215;-68
2021/11/22 12:47:47;;;;;;;8.60;5.93;;;8.20;99.90;;;;;;4373682;32;20181;-67
2021/11/22 12:50:24;;;;;;;11.83;6.63;;;8.30;99.90;;;;;;4362395;32;20213;-68
2021/11/22 12:53:14;;;;;;;8.03;6.10;;;8.40;99.90;;;;;;4362456;32;20319;-67
2021/11/22 12:55:44;;;;;;;10.33;6.40;;;8.40;99.90;;;;;;4375661;32;20178;-68
2021/11/22 12:58:29;;;;;;;9.07;6.30;;;8.40;99.90;;;;;;4391580;32;20293;-67